Time;durP1;ratioP1;P1;durP2;ratioP2;P2;SDS_P1;SDS_P2;PMS_P1;PMS_P2;Temp;Humidity;BMP_temperature;BMP_pressure;BME280_temperature;BME280_humidity;BME280_pressure;Samples;Min_cycle;Max_cycle;Signal;HPM_P1;HPM_P2
2020/12/15 00:00:36;;;;;;;14.87;8.00;;;3.50;99.90;;;;;;4192114;28;20495;-56
2020/12/15 00:02:38;;;;;;;14.80;7.90;;;3.50;99.90;;;;;;4192668;28;20527;-56
2020/12/15 00:04:39;;;;;;;12.27;6.97;;;3.50;99.90;;;;;;4192685;28;20483;-56
2020/12/15 00:06:40;;;;;;;13.80;6.87;;;3.50;99.90;;;;;;4192272;28;20484;-56
2020/12/15 00:08:42;;;;;;;14.43;7.97;;;3.50;99.90;;;;;;4190561;28;20533;-56
2020/12/15 00:10:44;;;;;;;16.93;8.90;;;3.50;99.90;;;;;;4192917;28;20475;-56
2020/12/15 00:12:46;;;;;;;16.70;8.30;;;3.60;99.90;;;;;;4191291;28;20475;-56
2020/12/15 00:14:48;;;;;;;16.73;8.40;;;3.50;99.90;;;;;;4193892;28;20485;-56
2020/12/15 00:16:49;;;;;;;17.30;8.77;;;3.50;99.90;;;;;;4191737;28;20491;-56
2020/12/15 00:18:51;;;;;;;16.83;8.17;;;3.50;99.90;;;;;;4192576;28;21038;-56
2020/12/15 00:20:52;;;;;;;17.37;8.63;;;3.50;99.90;;;;;;4191814;28;20467;-56
2020/12/15 00:22:53;;;;;;;16.53;7.93;;;3.50;99.90;;;;;;4192020;28;20479;-56
2020/12/15 00:24:55;;;;;;;16.20;7.87;;;3.50;99.90;;;;;;4192318;28;20475;-56
2020/12/15 00:26:56;;;;;;;13.97;7.63;;;3.50;99.90;;;;;;4191854;28;20549;-56
2020/12/15 00:28:59;;;;;;;13.87;8.10;;;3.50;99.90;;;;;;4190950;28;20969;-56
2020/12/15 00:31:00;;;;;;;18.47;8.33;;;3.50;99.90;;;;;;4191621;28;20475;-56
2020/12/15 00:33:01;;;;;;;12.67;7.77;;;3.40;99.90;;;;;;4189951;28;21001;-56
2020/12/15 00:35:02;;;;;;;14.37;7.87;;;3.40;99.90;;;;;;4189310;28;20506;-56
2020/12/15 00:37:04;;;;;;;14.07;7.70;;;3.50;99.90;;;;;;4191593;28;20474;-56
2020/12/15 00:39:05;;;;;;;12.57;7.00;;;3.40;99.90;;;;;;4193213;28;20496;-56
2020/12/15 00:41:07;;;;;;;17.47;8.00;;;3.40;99.90;;;;;;4192380;28;20486;-57
2020/12/15 00:43:09;;;;;;;15.57;8.10;;;3.40;99.90;;;;;;4191093;28;21089;-56
2020/12/15 00:45:11;;;;;;;15.10;8.10;;;3.40;99.90;;;;;;4191650;28;20475;-56
2020/12/15 00:47:12;;;;;;;13.00;7.33;;;3.40;99.90;;;;;;4192338;28;20470;-56
2020/12/15 00:49:13;;;;;;;12.90;7.40;;;3.40;99.90;;;;;;4191961;28;20467;-56
2020/12/15 00:51:16;;;;;;;13.63;7.37;;;3.40;99.90;;;;;;4190672;28;20500;-56
2020/12/15 00:53:17;;;;;;;13.27;7.00;;;3.40;99.90;;;;;;4192246;28;20486;-56
2020/12/15 00:55:19;;;;;;;9.60;6.20;;;3.50;99.90;;;;;;4190262;28;20514;-56
2020/12/15 00:57:20;;;;;;;10.77;6.67;;;3.50;99.90;;;;;;4189577;28;20482;-56
2020/12/15 00:59:21;;;;;;;12.03;6.93;;;3.50;99.90;;;;;;4192535;28;20482;-56
2020/12/15 01:01:23;;;;;;;13.87;7.00;;;3.50;99.90;;;;;;4190718;28;20476;-56
2020/12/15 01:03:25;;;;;;;13.07;6.77;;;3.50;99.90;;;;;;4191655;28;21085;-56
2020/12/15 01:05:27;;;;;;;12.53;7.37;;;3.60;99.90;;;;;;4189777;28;20994;-56
2020/12/15 01:07:29;;;;;;;18.57;9.80;;;3.60;99.90;;;;;;4191201;28;20491;-56
2020/12/15 01:09:31;;;;;;;17.30;9.10;;;3.60;99.90;;;;;;4190820;28;20479;-56
2020/12/15 01:11:33;;;;;;;17.20;8.83;;;3.60;99.90;;;;;;4191517;28;20474;-57
2020/12/15 01:13:35;;;;;;;16.93;9.00;;;3.60;99.90;;;;;;4193406;28;20467;-56
2020/12/15 01:15:36;;;;;;;15.63;7.90;;;3.60;99.90;;;;;;4190824;28;20575;-56
2020/12/15 01:17:38;;;;;;;16.30;8.87;;;3.70;99.90;;;;;;4191027;28;20478;-56
2020/12/15 01:19:40;;;;;;;16.13;8.60;;;3.70;99.90;;;;;;4191163;28;20487;-55
2020/12/15 01:21:41;;;;;;;18.17;8.67;;;3.70;99.90;;;;;;4192035;28;20482;-56
2020/12/15 01:23:42;;;;;;;15.10;7.50;;;3.70;99.90;;;;;;4189401;28;20471;-56
2020/12/15 01:25:44;;;;;;;12.67;7.87;;;3.70;99.90;;;;;;4191611;28;21189;-56
2020/12/15 01:27:45;;;;;;;12.70;7.20;;;3.80;99.90;;;;;;4190954;28;20473;-56
2020/12/15 01:29:46;;;;;;;14.40;8.10;;;3.80;99.90;;;;;;4189267;28;20470;-56
2020/12/15 01:31:48;;;;;;;16.73;8.67;;;3.80;99.90;;;;;;4190961;28;20521;-56
2020/12/15 01:33:50;;;;;;;17.10;9.20;;;3.80;99.90;;;;;;4191093;28;20575;-56
2020/12/15 01:35:54;;;;;;;15.60;9.20;;;3.80;99.90;;;;;;4191440;28;20881;-56
2020/12/15 01:37:56;;;;;;;15.73;8.33;;;3.80;99.90;;;;;;4191701;28;20507;-56
2020/12/15 01:40:17;;;;;;;18.07;9.23;;;3.80;99.90;;;;;;4191039;28;20484;-56
2020/12/15 01:42:18;;;;;;;18.80;8.67;;;3.90;99.90;;;;;;4190421;28;20483;-56
2020/12/15 01:44:20;;;;;;;14.73;8.30;;;3.80;99.90;;;;;;4191222;28;20505;-60
2020/12/15 01:46:21;;;;;;;15.93;8.67;;;3.80;99.90;;;;;;4188785;28;20816;-56
2020/12/15 01:48:23;;;;;;;14.97;8.23;;;3.70;99.90;;;;;;4190976;28;20464;-56
2020/12/15 01:50:25;;;;;;;13.97;7.67;;;3.90;99.90;;;;;;4190326;28;20472;-55
2020/12/15 01:52:29;;;;;;;14.93;8.00;;;3.80;99.90;;;;;;4189236;28;20467;-56
2020/12/15 01:54:30;;;;;;;17.13;8.50;;;3.90;99.90;;;;;;4189856;28;20471;-56
2020/12/15 01:56:31;;;;;;;15.23;8.10;;;3.90;99.90;;;;;;4192248;28;20974;-56
2020/12/15 01:58:34;;;;;;;14.13;8.40;;;3.90;99.90;;;;;;4190654;28;20463;-56
2020/12/15 02:00:35;;;;;;;15.50;8.40;;;3.90;99.90;;;;;;4189460;28;20548;-57
2020/12/15 02:02:40;;;;;;;12.80;7.33;;;3.90;99.90;;;;;;4189842;28;20499;-56
2020/12/15 02:04:41;;;;;;;18.30;8.70;;;3.90;99.90;;;;;;4191300;28;20811;-56
2020/12/15 02:06:48;;;;;;;15.13;8.37;;;3.90;99.90;;;;;;4191232;28;20491;-56
2020/12/15 02:08:50;;;;;;;15.03;8.30;;;3.90;99.90;;;;;;4190753;28;20478;-56
2020/12/15 02:10:51;;;;;;;14.43;7.90;;;3.80;99.90;;;;;;4190190;28;20471;-57
2020/12/15 02:12:53;;;;;;;14.20;8.07;;;3.90;99.90;;;;;;4191014;28;20493;-57
2020/12/15 02:14:54;;;;;;;16.63;8.40;;;3.90;99.90;;;;;;4190849;28;20583;-56
2020/12/15 02:16:57;;;;;;;16.23;9.30;;;3.90;99.90;;;;;;4190844;28;20472;-56
2020/12/15 02:18:59;;;;;;;16.30;8.73;;;3.90;99.90;;;;;;4190276;28;20477;-56
2020/12/15 02:21:03;;;;;;;17.23;8.40;;;3.90;99.90;;;;;;4190851;28;20946;-56
2020/12/15 02:23:05;;;;;;;15.73;7.97;;;3.90;99.90;;;;;;4188576;28;20482;-56
2020/12/15 02:25:07;;;;;;;16.63;8.57;;;3.90;99.90;;;;;;4189954;28;20483;-56
2020/12/15 02:27:08;;;;;;;16.77;9.27;;;3.90;99.90;;;;;;4189903;28;20475;-57
2020/12/15 02:29:09;;;;;;;17.83;8.93;;;3.90;99.90;;;;;;4189224;28;22026;-56
2020/12/15 02:31:11;;;;;;;16.97;9.23;;;3.90;99.90;;;;;;4189646;28;20481;-57
2020/12/15 02:33:12;;;;;;;15.87;9.13;;;3.90;99.90;;;;;;4189676;28;20502;-57
2020/12/15 02:35:14;;;;;;;19.73;9.83;;;4.00;99.90;;;;;;4190346;28;20546;-58
2020/12/15 02:37:15;;;;;;;21.13;10.73;;;4.00;99.90;;;;;;4189796;28;20463;-57
2020/12/15 02:39:18;;;;;;;17.73;9.83;;;4.00;99.90;;;;;;4189491;28;20481;-57
2020/12/15 02:41:20;;;;;;;19.53;10.93;;;4.00;99.90;;;;;;4190537;28;20470;-57
2020/12/15 02:43:21;;;;;;;21.33;12.43;;;3.90;99.90;;;;;;4190623;28;20475;-56
2020/12/15 02:45:22;;;;;;;22.57;11.53;;;4.00;99.90;;;;;;4189478;28;20466;-56
2020/12/15 02:47:24;;;;;;;24.57;11.70;;;4.00;99.90;;;;;;4188780;28;20498;-56
2020/12/15 02:49:25;;;;;;;22.67;11.27;;;4.00;99.90;;;;;;4190566;28;20478;-56
2020/12/15 02:51:28;;;;;;;20.47;11.27;;;4.00;99.90;;;;;;4189411;28;21048;-56
2020/12/15 02:53:29;;;;;;;19.17;10.93;;;4.00;99.90;;;;;;4189826;28;20464;-56
2020/12/15 02:55:32;;;;;;;23.03;12.27;;;4.00;99.90;;;;;;4187824;28;20471;-56
2020/12/15 02:57:33;;;;;;;19.37;10.93;;;4.00;99.90;;;;;;4189619;28;20469;-56
2020/12/15 02:59:34;;;;;;;19.87;11.20;;;4.00;99.90;;;;;;4189843;28;20507;-56
2020/12/15 03:01:39;;;;;;;19.60;10.87;;;4.00;99.90;;;;;;4190680;28;20482;-56
2020/12/15 03:03:40;;;;;;;18.07;9.97;;;4.00;99.90;;;;;;4188925;28;20491;-56
2020/12/15 03:05:41;;;;;;;21.80;11.40;;;4.00;99.90;;;;;;4188772;28;20945;-56
2020/12/15 03:07:43;;;;;;;19.00;10.03;;;4.00;99.90;;;;;;4190206;28;20511;-56
2020/12/15 03:09:44;;;;;;;20.40;11.10;;;4.00;99.90;;;;;;4190224;28;20474;-57
2020/12/15 03:11:46;;;;;;;20.17;10.80;;;4.00;99.90;;;;;;4188741;28;20473;-57
2020/12/15 03:13:48;;;;;;;21.60;11.60;;;4.00;99.90;;;;;;4187394;28;21482;-56
2020/12/15 03:15:49;;;;;;;19.33;11.13;;;4.00;99.90;;;;;;4190047;28;20466;-56
2020/12/15 03:17:50;;;;;;;22.20;11.20;;;4.00;99.90;;;;;;4188698;28;20468;-56
2020/12/15 03:19:52;;;;;;;20.37;11.47;;;4.10;99.90;;;;;;4188514;28;20492;-56
2020/12/15 03:21:53;;;;;;;21.10;11.20;;;4.10;99.90;;;;;;4189031;28;20479;-56
2020/12/15 03:23:55;;;;;;;24.80;12.70;;;4.10;99.90;;;;;;4189039;28;20472;-57
2020/12/15 03:25:56;;;;;;;19.80;10.73;;;4.10;99.90;;;;;;4189581;28;20475;-56
2020/12/15 03:27:58;;;;;;;22.00;12.40;;;4.10;99.90;;;;;;4189516;28;20476;-57
2020/12/15 03:29:59;;;;;;;22.20;12.80;;;4.10;99.90;;;;;;4189504;28;20493;-56
2020/12/15 03:32:01;;;;;;;21.13;12.20;;;4.10;99.90;;;;;;4189671;28;20983;-56
2020/12/15 03:34:02;;;;;;;20.93;10.93;;;4.20;99.90;;;;;;4190498;28;20483;-60
2020/12/15 03:36:04;;;;;;;20.90;11.23;;;4.20;99.90;;;;;;4188334;28;20916;-56
2020/12/15 03:38:05;;;;;;;21.60;11.07;;;4.10;99.90;;;;;;4190165;28;20497;-56
2020/12/15 03:40:07;;;;;;;20.60;10.73;;;4.20;99.90;;;;;;4188449;28;20498;-56
2020/12/15 03:42:08;;;;;;;19.40;11.30;;;4.20;99.90;;;;;;4187310;28;20543;-56
2020/12/15 03:44:11;;;;;;;18.93;10.87;;;4.20;99.90;;;;;;4189742;28;20476;-56
2020/12/15 03:46:12;;;;;;;20.97;11.17;;;4.20;99.90;;;;;;4187221;28;20472;-56
2020/12/15 03:48:14;;;;;;;19.73;10.63;;;4.20;99.90;;;;;;4188621;28;20474;-56
2020/12/15 03:50:16;;;;;;;21.37;11.23;;;4.20;99.90;;;;;;4187703;28;20471;-56
2020/12/15 03:52:17;;;;;;;21.93;11.50;;;4.30;99.90;;;;;;4188798;28;20975;-56
2020/12/15 03:54:18;;;;;;;18.53;10.70;;;4.30;99.90;;;;;;4189668;28;20483;-56
2020/12/15 03:56:19;;;;;;;20.50;10.70;;;4.30;99.90;;;;;;4189552;28;20977;-56
2020/12/15 03:58:21;;;;;;;21.80;10.93;;;4.30;99.90;;;;;;4190882;28;20497;-56
2020/12/15 04:00:23;;;;;;;20.50;10.80;;;4.30;99.90;;;;;;4189908;28;20488;-57
2020/12/15 04:02:25;;;;;;;21.53;11.17;;;4.30;99.90;;;;;;4188128;28;21073;-55
2020/12/15 04:04:26;;;;;;;22.60;10.47;;;4.30;99.90;;;;;;4189255;28;20650;-56
2020/12/15 04:06:27;;;;;;;19.27;10.47;;;4.30;99.90;;;;;;4188832;28;20471;-57
2020/12/15 04:08:29;;;;;;;20.10;10.57;;;4.30;99.90;;;;;;4190281;28;20476;-56
2020/12/15 04:10:30;;;;;;;17.10;9.67;;;4.30;99.90;;;;;;4187253;28;20463;-56
2020/12/15 04:12:31;;;;;;;20.57;10.57;;;4.40;99.90;;;;;;4190007;28;20515;-56
2020/12/15 04:14:33;;;;;;;23.27;10.80;;;4.40;99.90;;;;;;4190492;28;20467;-56
2020/12/15 04:16:35;;;;;;;22.73;12.27;;;4.40;99.90;;;;;;4189608;28;20852;-56
2020/12/15 04:18:36;;;;;;;21.77;11.30;;;4.40;99.90;;;;;;4189834;28;20467;-56
2020/12/15 04:20:38;;;;;;;21.93;11.13;;;4.40;99.90;;;;;;4190097;28;20492;-56
2020/12/15 04:22:39;;;;;;;21.70;11.47;;;4.40;99.90;;;;;;4188586;28;20461;-56
2020/12/15 04:24:40;;;;;;;22.07;12.00;;;4.30;99.90;;;;;;4189522;28;20472;-56
2020/12/15 04:26:42;;;;;;;23.30;12.17;;;4.40;99.90;;;;;;4189450;28;20483;-56
2020/12/15 04:28:43;;;;;;;23.37;12.13;;;4.40;99.90;;;;;;4186553;28;20520;-56
2020/12/15 04:30:44;;;;;;;21.17;11.33;;;4.40;99.90;;;;;;4188186;28;20468;-56
2020/12/15 04:32:47;;;;;;;22.83;12.60;;;4.40;99.90;;;;;;4190025;28;20471;-57
2020/12/15 04:34:48;;;;;;;25.90;12.53;;;4.40;99.90;;;;;;4192253;28;20487;-56
2020/12/15 04:36:50;;;;;;;21.03;11.87;;;4.40;99.90;;;;;;4192164;28;20491;-57
2020/12/15 04:38:51;;;;;;;22.33;11.13;;;4.40;99.90;;;;;;4192681;28;20474;-56
2020/12/15 04:40:52;;;;;;;19.57;10.67;;;4.40;99.90;;;;;;4191894;28;20480;-56
2020/12/15 04:42:54;;;;;;;18.90;10.60;;;4.40;99.90;;;;;;4191789;28;20465;-57
2020/12/15 04:44:55;;;;;;;20.80;10.20;;;4.40;99.90;;;;;;4191542;28;20482;-56
2020/12/15 04:47:10;;;;;;;23.97;11.37;;;4.50;99.90;;;;;;4192569;28;20503;-57
2020/12/15 04:49:20;;;;;;;17.43;10.07;;;4.50;99.90;;;;;;4191915;28;20463;-56
2020/12/15 04:51:25;;;;;;;19.07;10.73;;;4.50;99.90;;;;;;4191730;28;20533;-56
2020/12/15 04:53:28;;;;;;;19.10;10.40;;;4.50;99.90;;;;;;4191182;28;21119;-56
2020/12/15 04:55:30;;;;;;;18.40;9.63;;;4.50;99.90;;;;;;4190649;28;20472;-56
2020/12/15 04:57:34;;;;;;;17.77;9.50;;;4.50;99.90;;;;;;4192675;28;20467;-56
2020/12/15 04:59:36;;;;;;;17.30;9.30;;;4.50;99.90;;;;;;4192794;28;20482;-56
2020/12/15 05:01:39;;;;;;;19.47;9.30;;;4.60;99.90;;;;;;4192072;28;20513;-56
2020/12/15 05:03:43;;;;;;;20.70;10.93;;;4.60;99.90;;;;;;4191164;28;20507;-56
2020/12/15 05:05:47;;;;;;;20.10;10.07;;;4.50;99.90;;;;;;4192455;28;20476;-56
2020/12/15 05:07:49;;;;;;;19.30;10.17;;;4.60;99.90;;;;;;4192472;28;20479;-56
2020/12/15 05:09:50;;;;;;;18.17;9.23;;;4.60;99.90;;;;;;4190151;28;20471;-55
2020/12/15 05:11:51;;;;;;;17.17;9.33;;;4.60;99.90;;;;;;4192405;28;20799;-56
2020/12/15 05:13:53;;;;;;;16.33;9.20;;;4.60;99.90;;;;;;4190367;28;20476;-55
2020/12/15 05:15:57;;;;;;;18.77;9.00;;;4.60;99.90;;;;;;4192666;28;21028;-56
2020/12/15 05:18:01;;;;;;;20.77;10.67;;;4.60;99.90;;;;;;4194262;28;20471;-56
2020/12/15 05:20:03;;;;;;;21.07;10.00;;;4.60;99.90;;;;;;4190186;28;20518;-57
2020/12/15 05:22:05;;;;;;;22.67;10.93;;;4.60;99.90;;;;;;4190629;28;20818;-56
2020/12/15 05:24:09;;;;;;;19.67;10.63;;;4.60;99.90;;;;;;4192258;28;21005;-56
2020/12/15 05:26:10;;;;;;;20.93;11.00;;;4.60;99.90;;;;;;4189507;28;20919;-56
2020/12/15 05:28:13;;;;;;;22.80;11.37;;;4.60;99.90;;;;;;4191845;28;21161;-56
2020/12/15 05:30:15;;;;;;;20.13;11.10;;;4.60;99.90;;;;;;4192024;28;20553;-56
2020/12/15 05:32:17;;;;;;;23.93;11.63;;;4.60;99.90;;;;;;4191378;28;20473;-56
2020/12/15 05:34:23;;;;;;;20.13;10.97;;;4.60;99.90;;;;;;4190591;28;20467;-56
2020/12/15 05:36:25;;;;;;;19.10;9.70;;;4.60;99.90;;;;;;4190554;28;20467;-56
2020/12/15 05:38:27;;;;;;;22.13;11.23;;;4.60;99.90;;;;;;4191351;28;20455;-57
2020/12/15 05:40:29;;;;;;;18.83;10.30;;;4.60;99.90;;;;;;4190910;28;20498;-56
2020/12/15 05:42:33;;;;;;;19.23;9.53;;;4.60;99.90;;;;;;4189378;28;20485;-56
2020/12/15 05:44:36;;;;;;;21.47;10.83;;;4.70;99.90;;;;;;4190583;28;20467;-56
2020/12/15 05:46:46;;;;;;;17.73;9.37;;;4.70;99.90;;;;;;4192482;28;21077;-56
2020/12/15 05:48:50;;;;;;;15.97;8.63;;;4.70;99.90;;;;;;4189104;28;20517;-56
2020/12/15 05:50:56;;;;;;;18.07;9.03;;;4.70;99.90;;;;;;4191103;28;20475;-56
2020/12/15 05:52:59;;;;;;;20.43;10.33;;;4.70;99.90;;;;;;4191534;28;20473;-57
2020/12/15 05:55:10;;;;;;;20.40;10.13;;;4.70;99.90;;;;;;4190461;28;20543;-55
2020/12/15 05:57:11;;;;;;;19.37;10.70;;;4.70;99.90;;;;;;4190290;28;20456;-55
2020/12/15 05:59:20;;;;;;;20.83;10.63;;;4.70;99.90;;;;;;4189400;28;20467;-56
2020/12/15 06:01:22;;;;;;;19.73;10.53;;;4.70;99.90;;;;;;4192119;28;20488;-56
2020/12/15 06:03:23;;;;;;;20.63;10.53;;;4.70;99.90;;;;;;4189751;28;20510;-56
2020/12/15 06:05:26;;;;;;;17.80;10.07;;;4.70;99.90;;;;;;4191493;28;20494;-56
2020/12/15 06:07:28;;;;;;;16.43;10.00;;;4.70;99.90;;;;;;4190786;28;20479;-56
2020/12/15 06:09:30;;;;;;;19.03;9.83;;;4.70;99.90;;;;;;4189323;28;20484;-56
2020/12/15 06:11:33;;;;;;;19.57;10.67;;;4.70;99.90;;;;;;4190453;28;20675;-56
2020/12/15 06:13:35;;;;;;;21.13;10.67;;;4.80;99.90;;;;;;4190109;28;20470;-56
2020/12/15 06:15:36;;;;;;;17.70;9.50;;;4.80;99.90;;;;;;4191303;28;20475;-56
2020/12/15 06:17:37;;;;;;;19.17;9.87;;;4.80;99.90;;;;;;4189240;28;20469;-56
2020/12/15 06:19:39;;;;;;;16.17;9.43;;;4.80;99.90;;;;;;4189658;28;20511;-56
2020/12/15 06:21:48;;;;;;;17.77;9.60;;;4.80;99.90;;;;;;4191231;28;20467;-56
2020/12/15 06:23:58;;;;;;;17.97;9.17;;;4.80;99.90;;;;;;4188480;28;20501;-58
2020/12/15 06:25:59;;;;;;;22.10;10.50;;;4.80;99.90;;;;;;4188844;28;20461;-56
2020/12/15 06:28:07;;;;;;;21.93;11.17;;;4.80;99.90;;;;;;4189720;28;20475;-56
2020/12/15 06:30:08;;;;;;;19.93;10.83;;;4.80;99.90;;;;;;4192354;28;20464;-56
2020/12/15 06:32:19;;;;;;;21.90;11.93;;;4.80;99.90;;;;;;4190401;28;20463;-57
2020/12/15 06:34:25;;;;;;;24.87;13.20;;;4.80;99.90;;;;;;4189206;28;20487;-56
2020/12/15 06:36:28;;;;;;;24.37;12.20;;;4.80;99.90;;;;;;4191905;28;20491;-56
2020/12/15 06:38:30;;;;;;;22.77;12.47;;;4.80;99.90;;;;;;4190083;28;20465;-56
2020/12/15 06:40:39;;;;;;;21.80;12.03;;;4.80;99.90;;;;;;4188705;28;20500;-56
2020/12/15 06:42:48;;;;;;;25.77;13.03;;;4.80;99.90;;;;;;4190167;28;20468;-56
2020/12/15 06:45:00;;;;;;;23.07;11.70;;;4.80;99.90;;;;;;4189639;28;20487;-57
2020/12/15 06:47:03;;;;;;;23.23;11.83;;;4.80;99.90;;;;;;4189607;28;20463;-57
2020/12/15 06:49:10;;;;;;;22.93;11.33;;;4.90;99.90;;;;;;4191076;28;22524;-57
2020/12/15 06:51:11;;;;;;;23.63;12.03;;;4.90;99.90;;;;;;4191172;28;21070;-59
2020/12/15 06:53:15;;;;;;;21.67;11.03;;;4.90;99.90;;;;;;4191689;28;20499;-57
2020/12/15 06:55:28;;;;;;;22.37;11.37;;;4.90;99.90;;;;;;4188373;28;20466;-57
2020/12/15 06:57:34;;;;;;;20.63;11.60;;;4.90;99.90;;;;;;4188171;28;20467;-57
2020/12/15 06:59:37;;;;;;;20.40;10.60;;;5.00;99.90;;;;;;4189726;28;20490;-57
2020/12/15 07:01:39;;;;;;;19.47;10.80;;;4.90;99.90;;;;;;4190544;28;20494;-57
2020/12/15 07:03:42;;;;;;;20.30;10.87;;;4.90;99.90;;;;;;4190910;28;22313;-57
2020/12/15 07:05:43;;;;;;;23.10;11.83;;;4.90;99.90;;;;;;4189455;28;20511;-57
2020/12/15 07:07:50;;;;;;;21.37;10.97;;;4.90;99.90;;;;;;4189525;28;20472;-57
2020/12/15 07:09:58;;;;;;;22.10;11.37;;;4.90;99.90;;;;;;4189897;28;20472;-58
2020/12/15 07:11:59;;;;;;;22.03;11.83;;;5.00;99.90;;;;;;4190799;28;20473;-57
2020/12/15 07:14:03;;;;;;;22.10;10.67;;;5.00;99.90;;;;;;4190856;28;20471;-57
2020/12/15 07:16:05;;;;;;;20.97;10.70;;;4.90;99.90;;;;;;4190048;28;20474;-57
2020/12/15 07:18:07;;;;;;;20.97;11.07;;;5.00;99.90;;;;;;4189908;28;20806;-55
2020/12/15 07:20:08;;;;;;;21.80;10.87;;;5.00;99.90;;;;;;4190639;28;20487;-55
2020/12/15 07:22:10;;;;;;;21.40;12.03;;;5.00;99.90;;;;;;4190818;28;20566;-55
2020/12/15 07:24:13;;;;;;;21.63;11.33;;;5.00;99.90;;;;;;4188239;28;20530;-58
2020/12/15 07:26:15;;;;;;;26.20;15.18;;;5.00;99.90;;;;;;4180178;28;20449;-57
2020/12/15 07:28:18;;;;;;;23.03;12.33;;;5.10;99.90;;;;;;4186225;28;20206;-58
2020/12/15 07:30:21;;;;;;;23.40;11.97;;;5.10;99.90;;;;;;4187526;28;20848;-58
2020/12/15 07:32:22;;;;;;;26.03;12.93;;;5.10;99.90;;;;;;4186551;28;20516;-58
2020/12/15 07:34:24;;;;;;;22.00;12.03;;;5.00;99.90;;;;;;4191805;28;20463;-57
2020/12/15 07:36:26;;;;;;;24.53;12.50;;;5.10;99.90;;;;;;4187574;28;20480;-58
2020/12/15 07:38:29;;;;;;;23.03;11.93;;;5.10;99.90;;;;;;4187291;28;20494;-58
2020/12/15 07:40:31;;;;;;;25.73;12.67;;;5.10;99.90;;;;;;4186034;28;20500;-56
2020/12/15 07:42:33;;;;;;;26.27;12.73;;;5.10;99.90;;;;;;4185410;28;20460;-57
2020/12/15 07:44:34;;;;;;;24.27;11.87;;;5.00;99.90;;;;;;4186700;28;20460;-57
2020/12/15 07:46:36;;;;;;;24.37;12.13;;;5.10;99.90;;;;;;4187437;28;20463;-57
2020/12/15 07:48:38;;;;;;;22.47;11.80;;;5.10;99.90;;;;;;4189517;28;20480;-57
2020/12/15 07:50:40;;;;;;;23.13;11.47;;;5.10;99.90;;;;;;4187717;28;20538;-57
2020/12/15 07:52:41;;;;;;;23.60;12.23;;;5.10;99.90;;;;;;4187220;28;21042;-57
2020/12/15 07:54:42;;;;;;;23.47;11.70;;;5.20;99.90;;;;;;4185369;28;20487;-58
2020/12/15 07:56:47;;;;;;;22.70;11.27;;;5.20;99.90;;;;;;4191030;28;20470;-58
2020/12/15 07:58:50;;;;;;;22.63;11.30;;;5.20;99.90;;;;;;4189011;28;20476;-57
2020/12/15 08:00:55;;;;;;;21.83;11.17;;;5.20;99.90;;;;;;4188604;28;20505;-56
2020/12/15 08:03:01;;;;;;;20.27;10.80;;;5.20;99.90;;;;;;4186858;28;20998;-57
2020/12/15 08:05:08;;;;;;;21.43;11.67;;;5.30;99.90;;;;;;4187149;28;20544;-57
2020/12/15 08:07:12;;;;;;;22.93;11.83;;;5.30;99.90;;;;;;4191517;28;20540;-57
2020/12/15 08:09:15;;;;;;;22.03;10.93;;;5.30;99.90;;;;;;4187923;28;20460;-57
2020/12/15 08:11:18;;;;;;;24.33;11.80;;;5.30;99.90;;;;;;4190874;28;20520;-56
2020/12/15 08:13:20;;;;;;;19.50;10.13;;;5.30;99.90;;;;;;4189414;28;20467;-56
2020/12/15 08:15:22;;;;;;;21.97;11.27;;;5.40;99.90;;;;;;4190024;28;21341;-56
2020/12/15 08:17:24;;;;;;;24.27;12.43;;;5.40;99.90;;;;;;4191373;28;20468;-55
2020/12/15 08:19:26;;;;;;;24.93;12.43;;;5.40;99.90;;;;;;4191515;28;20468;-55
2020/12/15 08:21:38;;;;;;;25.83;13.23;;;5.40;99.90;;;;;;4190816;28;20491;-55
2020/12/15 08:23:47;;;;;;;27.30;13.83;;;5.50;99.90;;;;;;4191279;28;20472;-55
2020/12/15 08:25:48;;;;;;;25.57;13.40;;;5.50;99.90;;;;;;4190769;28;20477;-55
2020/12/15 08:27:50;;;;;;;23.03;12.90;;;5.50;99.90;;;;;;4193637;28;20467;-57
2020/12/15 08:29:51;;;;;;;24.00;12.57;;;5.60;99.90;;;;;;4188944;28;20499;-57
2020/12/15 08:31:53;;;;;;;22.73;12.30;;;5.60;99.90;;;;;;4190667;28;20494;-57
2020/12/15 08:33:54;;;;;;;21.70;11.57;;;5.60;99.90;;;;;;4187140;28;20468;-57
2020/12/15 08:35:57;;;;;;;21.20;11.53;;;5.60;99.90;;;;;;4188753;28;20478;-57
2020/12/15 08:38:00;;;;;;;24.10;12.10;;;5.60;99.90;;;;;;4188579;28;20467;-57
2020/12/15 08:40:03;;;;;;;24.93;13.23;;;5.60;99.90;;;;;;4189601;28;20475;-57
2020/12/15 08:42:08;;;;;;;22.47;11.60;;;5.60;99.90;;;;;;4192066;28;20466;-57
2020/12/15 08:44:12;;;;;;;21.33;11.37;;;5.60;99.90;;;;;;4190314;28;20473;-57
2020/12/15 08:46:18;;;;;;;20.27;10.47;;;5.60;99.90;;;;;;4189292;28;20475;-57
2020/12/15 08:48:22;;;;;;;24.90;13.50;;;5.60;99.90;;;;;;4189162;28;20464;-57
2020/12/15 08:50:27;;;;;;;23.23;12.00;;;5.70;99.90;;;;;;4188473;28;20294;-57
2020/12/15 08:52:28;;;;;;;23.63;12.67;;;5.70;99.90;;;;;;4190269;28;20472;-58
2020/12/15 08:54:29;;;;;;;26.55;15.65;;;5.70;99.90;;;;;;4187836;28;20452;-57
2020/12/15 08:56:33;;;;;;;21.30;12.33;;;5.80;99.90;;;;;;4190245;28;20286;-57
2020/12/15 08:58:35;;;;;;;21.83;12.50;;;5.80;99.90;;;;;;4190511;28;20793;-58
2020/12/15 09:00:39;;;;;;;21.83;12.03;;;5.80;99.90;;;;;;4193623;28;20496;-57
2020/12/15 09:02:41;;;;;;;23.70;11.57;;;5.80;99.90;;;;;;4189277;28;20497;-57
2020/12/15 09:04:42;;;;;;;21.10;11.17;;;5.80;99.90;;;;;;4189538;28;20476;-57
2020/12/15 09:06:44;;;;;;;22.77;12.27;;;5.80;99.90;;;;;;4187792;28;20473;-57
2020/12/15 09:08:50;;;;;;;23.77;12.37;;;5.90;99.90;;;;;;4189471;28;20500;-57
2020/12/15 09:10:52;;;;;;;25.48;14.45;;;5.80;99.90;;;;;;4189088;28;20483;-57
2020/12/15 09:12:55;;;;;;;22.87;11.93;;;5.90;99.90;;;;;;4187691;28;20274;-57
2020/12/15 09:15:00;;;;;;;25.90;12.77;;;5.90;99.90;;;;;;4189290;28;20474;-57
2020/12/15 09:17:02;;;;;;;23.73;13.00;;;5.90;99.90;;;;;;4187021;28;20508;-59
2020/12/15 09:19:13;;;;;;;22.83;11.73;;;5.90;99.90;;;;;;4190399;28;20581;-56
2020/12/15 09:21:16;;;;;;;21.67;11.00;;;5.90;99.90;;;;;;4189656;28;20483;-56
2020/12/15 09:23:26;;;;;;;24.20;12.53;;;5.80;99.90;;;;;;4190675;28;20461;-56
2020/12/15 09:25:27;;;;;;;23.00;12.03;;;5.90;99.90;;;;;;4192671;28;20228;-57
2020/12/15 09:27:31;;;;;;;23.47;12.20;;;5.90;99.90;;;;;;4188288;28;20468;-57
2020/12/15 09:29:33;;;;;;;23.50;11.80;;;5.90;99.90;;;;;;4189743;28;20486;-58
2020/12/15 09:31:35;;;;;;;27.17;12.03;;;6.00;99.90;;;;;;4187749;28;20472;-57
2020/12/15 09:33:36;;;;;;;20.80;11.33;;;6.00;99.90;;;;;;4187634;28;20460;-56
2020/12/15 09:35:37;;;;;;;23.27;12.57;;;6.00;99.90;;;;;;4186958;28;20470;-56
2020/12/15 09:37:40;;;;;;;22.37;11.87;;;6.00;99.90;;;;;;4187930;28;20481;-56
2020/12/15 09:39:42;;;;;;;21.20;11.40;;;6.10;99.90;;;;;;4188603;28;20958;-57
2020/12/15 09:41:44;;;;;;;23.30;12.27;;;6.10;99.90;;;;;;4189045;28;20623;-56
2020/12/15 09:43:45;;;;;;;22.73;11.60;;;6.10;99.90;;;;;;4188287;28;20469;-56
2020/12/15 09:45:47;;;;;;;21.60;11.30;;;6.20;99.90;;;;;;4187247;28;20474;-57
2020/12/15 09:47:50;;;;;;;21.80;12.30;;;6.20;99.90;;;;;;4186979;28;20480;-57
2020/12/15 09:49:51;;;;;;;19.53;10.53;;;6.30;99.90;;;;;;4187931;28;21050;-56
2020/12/15 09:51:52;;;;;;;18.80;10.67;;;6.30;99.90;;;;;;4189164;28;20470;-56
2020/12/15 09:53:54;;;;;;;21.30;11.13;;;6.30;99.90;;;;;;4187972;28;21442;-56
2020/12/15 09:55:55;;;;;;;22.08;13.32;;;6.30;99.90;;;;;;4189986;28;20445;-57
2020/12/15 09:57:57;;;;;;;21.25;12.63;;;6.40;99.90;;;;;;4187459;28;20457;-57
2020/12/15 09:59:58;;;;;;;20.50;11.57;;;6.50;99.90;;;;;;4188169;28;20221;-56
2020/12/15 10:02:00;;;;;;;22.57;11.80;;;6.40;99.90;;;;;;4186536;28;20471;-56
2020/12/15 10:04:02;;;;;;;23.27;11.90;;;6.40;99.90;;;;;;4187258;28;20580;-56
2020/12/15 10:06:03;;;;;;;21.93;12.67;;;6.40;99.90;;;;;;4188256;28;20469;-57
2020/12/15 10:08:04;;;;;;;20.03;11.37;;;6.40;99.90;;;;;;4189078;28;20477;-56
2020/12/15 10:10:10;;;;;;;20.00;10.90;;;6.30;99.90;;;;;;4190204;28;20475;-57
2020/12/15 10:12:11;;;;;;;21.83;11.53;;;6.30;99.90;;;;;;4188128;28;20483;-57
2020/12/15 10:14:13;;;;;;;19.13;11.13;;;6.30;99.90;;;;;;4188254;28;20472;-57
2020/12/15 10:16:15;;;;;;;18.73;10.57;;;6.30;99.90;;;;;;4188906;28;20480;-59
2020/12/15 10:18:17;;;;;;;21.23;11.53;;;6.30;99.90;;;;;;4188438;28;21177;-56
2020/12/15 10:20:18;;;;;;;23.98;12.90;;;6.30;99.90;;;;;;4188224;28;20997;-56
2020/12/15 10:22:19;;;;;;;24.23;13.10;;;6.30;99.90;;;;;;4188122;28;20458;-58
2020/12/15 10:24:21;;;;;;;21.00;12.40;;;6.30;99.90;;;;;;4188792;28;20213;-56
2020/12/15 10:26:23;;;;;;;26.10;12.57;;;6.30;99.90;;;;;;4188075;28;20477;-57
2020/12/15 10:28:24;;;;;;;23.80;11.73;;;6.40;99.90;;;;;;4189623;28;20474;-57
2020/12/15 10:30:25;;;;;;;23.53;13.03;;;6.30;99.90;;;;;;4188816;28;20478;-56
2020/12/15 10:32:28;;;;;;;22.27;12.07;;;6.30;99.90;;;;;;4188406;28;20464;-56